Time;durP1;ratioP1;P1;durP2;ratioP2;P2;SDS_P1;SDS_P2;PMS_P1;PMS_P2;Temp;Humidity;BMP_temperature;BMP_pressure;BME280_temperature;BME280_humidity;BME280_pressure;Samples;Min_cycle;Max_cycle;Signal;HPM_P1;HPM_P2
2022/12/18 00:01:46;;;;;;;38.45;17.77;;;;;;;-7.53;100.00;101772.88;5062431;28;20588;-75
2022/12/18 00:04:20;;;;;;;42.05;17.02;;;;;;;-7.55;100.00;101762.34;5061754;28;20392;-74
2022/12/18 00:06:48;;;;;;;46.50;20.58;;;;;;;-7.54;100.00;101761.53;5055419;28;20197;-75
2022/12/18 00:09:15;;;;;;;37.00;19.88;;;;;;;-7.61;100.00;101760.31;5062807;28;20260;-75
2022/12/18 00:11:42;;;;;;;42.45;20.88;;;;;;;-7.64;100.00;101762.78;5055744;28;20205;-73
2022/12/18 00:14:11;;;;;;;39.35;17.10;;;;;;;-7.62;100.00;101766.38;5060921;28;20205;-75
2022/12/18 00:16:38;;;;;;;41.00;17.27;;;;;;;-7.67;100.00;101773.06;5057479;28;20193;-76
2022/12/18 00:19:05;;;;;;;43.47;17.60;;;;;;;-7.73;100.00;101771.88;5053793;28;20217;-75
2022/12/18 00:21:33;;;;;;;38.35;17.63;;;;;;;-7.81;100.00;101780.22;5059394;28;20208;-74
2022/12/18 00:24:01;;;;;;;44.08;19.83;;;;;;;-7.85;100.00;101765.19;5053265;28;20198;-75
2022/12/18 00:26:29;;;;;;;43.95;18.52;;;;;;;-7.88;100.00;101777.25;5061260;28;20205;-74
2022/12/18 00:28:59;;;;;;;39.58;18.30;;;;;;;-7.88;100.00;101761.53;5060559;28;20198;-74
2022/12/18 00:31:26;;;;;;;34.60;17.75;;;;;;;-7.94;100.00;101759.50;5056391;28;20600;-74
2022/12/18 00:33:55;;;;;;;36.72;17.02;;;;;;;-7.95;100.00;101767.28;5046484;28;20733;-73
2022/12/18 00:36:23;;;;;;;39.80;17.85;;;;;;;-7.97;100.00;101765.47;5058777;28;20334;-74
2022/12/18 00:38:50;;;;;;;38.95;16.90;;;;;;;-7.98;100.00;101754.97;5053334;28;20217;-75
2022/12/18 00:44:00;;;;;;;42.88;18.30;;;;;;;-7.92;100.00;101747.41;5053072;28;20197;-75
2022/12/18 00:46:26;;;;;;;33.53;15.52;;;;;;;-7.84;100.00;101763.50;5057187;28;20247;-74
2022/12/18 00:48:53;;;;;;;38.60;17.63;;;;;;;-7.80;100.00;101754.97;5050117;28;20198;-73
2022/12/18 00:51:19;;;;;;;35.20;17.63;;;;;;;-7.87;100.00;101759.03;5054728;28;20236;-75
2022/12/18 00:53:46;;;;;;;39.30;18.13;;;;;;;-7.85;100.00;101767.81;5052848;28;20789;-75
2022/12/18 00:56:12;;;;;;;37.40;17.23;;;;;;;-7.81;100.00;101771.50;5056902;28;20193;-73
2022/12/18 00:58:40;;;;;;;49.45;18.10;;;;;;;-7.81;100.00;101772.38;5052432;28;20280;-73
2022/12/18 01:01:08;;;;;;;35.30;17.30;;;;;;;-7.82;100.00;101774.94;5057855;28;20220;-73
2022/12/18 01:03:34;;;;;;;37.92;15.55;;;;;;;-7.83;100.00;101776.63;5057563;28;20292;-74
2022/12/18 01:06:06;;;;;;;39.67;18.45;;;;;;;-7.76;100.00;101777.84;5054705;28;20674;-74
2022/12/18 01:08:33;;;;;;;37.65;20.10;;;;;;;-7.85;100.00;101777.38;5055238;28;20624;-74
2022/12/18 01:10:59;;;;;;;38.22;17.50;;;;;;;-7.84;100.00;101785.31;5053098;28;20220;-73
2022/12/18 01:13:26;;;;;;;47.45;18.65;;;;;;;-7.87;100.00;101781.63;5054626;28;20626;-73
2022/12/18 01:15:54;;;;;;;40.00;17.52;;;;;;;-7.85;100.00;101772.16;5051455;28;20677;-74
2022/12/18 01:18:21;;;;;;;39.50;17.98;;;;;;;-7.88;100.00;101774.63;5051312;28;20228;-75
2022/12/18 01:20:47;;;;;;;33.15;17.55;;;;;;;-7.89;100.00;101785.88;5035371;28;20221;-74
2022/12/18 01:23:14;;;;;;;34.88;16.45;;;;;;;-7.86;100.00;101789.56;5053312;28;20204;-74
2022/12/18 01:25:40;;;;;;;34.75;17.67;;;;;;;-7.88;100.00;101785.97;5052080;28;20198;-74
2022/12/18 01:28:07;;;;;;;40.03;17.05;;;;;;;-7.88;100.00;101788.59;5052512;28;20197;-74
2022/12/18 01:30:34;;;;;;;42.47;17.40;;;;;;;-7.92;100.00;101793.59;5050152;28;20308;-74
2022/12/18 01:33:04;;;;;;;35.40;18.23;;;;;;;-7.83;100.00;101800.19;5048692;28;20198;-74
2022/12/18 01:35:31;;;;;;;36.63;17.75;;;;;;;-7.83;100.00;101796.66;5043344;28;20205;-73
2022/12/18 01:37:57;;;;;;;39.17;18.30;;;;;;;-7.84;100.00;101807.97;5051293;28;20209;-74
2022/12/18 01:40:24;;;;;;;42.92;19.33;;;;;;;-7.87;100.00;101810.41;5051641;28;20225;-73
2022/12/18 01:42:52;;;;;;;41.58;18.15;;;;;;;-7.88;100.00;101819.09;5053476;28;20200;-74
2022/12/18 01:45:25;;;;;;;40.40;16.27;;;;;;;-7.96;100.00;101818.66;5052389;28;20674;-75
2022/12/18 01:47:54;;;;;;;38.55;16.27;;;;;;;-7.98;100.00;101820.34;5051521;28;20203;-74
2022/12/18 01:50:24;;;;;;;48.33;16.80;;;;;;;-8.01;100.00;101812.31;5055537;28;20225;-74
2022/12/18 01:52:52;;;;;;;41.42;18.88;;;;;;;-7.97;100.00;101806.44;5058583;28;20200;-74
2022/12/18 01:55:23;;;;;;;40.45;18.73;;;;;;;-7.98;100.00;101810.75;5057072;28;20549;-74
2022/12/18 01:57:53;;;;;;;38.03;18.90;;;;;;;-8.00;100.00;101804.56;5054801;28;20195;-74
2022/12/18 02:00:22;;;;;;;38.35;16.83;;;;;;;-8.00;100.00;101801.03;5054350;28;20223;-74
2022/12/18 02:02:49;;;;;;;37.58;16.88;;;;;;;-8.06;100.00;101800.72;5055640;28;20201;-74
2022/12/18 02:05:19;;;;;;;34.45;17.75;;;;;;;-8.07;100.00;101799.81;5056539;28;20210;-73
2022/12/18 02:07:58;;;;;;;35.38;15.95;;;;;;;-8.02;100.00;101803.56;5053471;28;20273;-74
2022/12/18 02:10:32;;;;;;;34.10;16.63;;;;;;;-8.06;100.00;101799.00;5054747;28;20224;-74
2022/12/18 02:13:13;;;;;;;39.28;18.08;;;;;;;-8.11;100.00;101792.63;5051457;28;20251;-74
2022/12/18 02:15:44;;;;;;;36.10;17.00;;;;;;;-8.13;100.00;101793.38;5054045;28;20210;-73
2022/12/18 02:18:15;;;;;;;37.13;18.35;;;;;;;-8.11;100.00;101795.25;5049505;28;20647;-74
2022/12/18 02:20:46;;;;;;;31.90;14.77;;;;;;;-8.04;100.00;101792.13;5053356;28;20217;-74
2022/12/18 02:23:27;;;;;;;37.58;17.80;;;;;;;-8.06;100.00;101791.16;5067585;28;20187;-74
2022/12/18 02:26:16;;;;;;;34.97;14.57;;;;;;;-8.08;100.00;101778.81;5076552;28;20181;-73
2022/12/18 02:28:47;;;;;;;37.03;14.80;;;;;;;-8.10;100.00;101770.00;5062678;28;20193;-73
2022/12/18 02:31:26;;;;;;;30.15;14.40;;;;;;;-8.11;100.00;101779.56;5073866;28;20240;-73
2022/12/18 02:33:57;;;;;;;31.90;15.48;;;;;;;-8.06;100.00;101780.69;5073975;28;20260;-72
2022/12/18 02:36:25;;;;;;;39.05;16.98;;;;;;;-8.06;100.00;101769.34;5071109;28;20248;-73
2022/12/18 02:38:53;;;;;;;36.03;15.63;;;;;;;-8.03;100.00;101770.38;5064709;28;20225;-73
2022/12/18 02:41:22;;;;;;;40.20;15.90;;;;;;;-8.08;100.00;101765.75;5066029;28;20220;-73
2022/12/18 02:43:54;;;;;;;37.50;15.60;;;;;;;-8.11;100.00;101776.06;5062326;28;20235;-73
2022/12/18 02:46:34;;;;;;;38.15;15.02;;;;;;;-8.12;100.00;101782.09;5059487;28;20199;-73
2022/12/18 02:49:12;;;;;;;36.55;15.15;;;;;;;-8.08;100.00;101784.94;5052513;28;20571;-74
2022/12/18 02:51:48;;;;;;;37.92;15.52;;;;;;;-8.13;100.00;101772.47;5051535;28;20569;-74
2022/12/18 02:54:23;;;;;;;35.28;16.65;;;;;;;-8.12;100.00;101769.91;5062714;28;20214;-74
2022/12/18 02:56:55;;;;;;;34.53;14.25;;;;;;;-8.13;100.00;101764.63;5065842;28;20265;-73
2022/12/18 02:59:30;;;;;;;44.40;17.48;;;;;;;-8.19;100.00;101768.69;5067966;28;20210;-72
2022/12/18 03:02:01;;;;;;;34.20;16.30;;;;;;;-8.20;100.00;101777.34;5052888;28;20224;-74
2022/12/18 03:04:33;;;;;;;39.60;16.35;;;;;;;-8.17;100.00;101772.28;5055849;28;20236;-75
2022/12/18 03:07:04;;;;;;;40.13;17.23;;;;;;;-8.17;100.00;101785.34;5049124;28;20204;-75
2022/12/18 03:09:35;;;;;;;39.53;16.30;;;;;;;-8.13;100.00;101798.59;5053862;28;20227;-75
2022/12/18 03:12:25;;;;;;;39.17;18.33;;;;;;;-8.12;100.00;101803.00;5056531;28;20197;-74
2022/12/18 03:14:59;;;;;;;41.28;17.50;;;;;;;-8.17;100.00;101793.19;5056441;28;20565;-74
2022/12/18 03:17:28;;;;;;;36.67;16.60;;;;;;;-8.18;100.00;101793.13;5057962;28;20205;-73
2022/12/18 03:19:59;;;;;;;40.85;17.45;;;;;;;-8.27;100.00;101795.25;5046009;28;20321;-74
2022/12/18 03:22:28;;;;;;;37.25;16.00;;;;;;;-8.27;100.00;101800.50;5055858;28;20219;-72
2022/12/18 03:24:57;;;;;;;37.72;16.55;;;;;;;-8.33;100.00;101794.94;5055944;28;20717;-73
2022/12/18 03:27:27;;;;;;;40.83;16.30;;;;;;;-8.35;100.00;101787.00;5053517;28;20222;-74
2022/12/18 03:30:06;;;;;;;35.67;16.75;;;;;;;-8.42;100.00;101777.97;5051449;28;20217;-74
2022/12/18 03:32:37;;;;;;;43.55;17.70;;;;;;;-8.54;100.00;101779.03;5051248;28;20197;-74
2022/12/18 03:35:05;;;;;;;44.20;19.13;;;;;;;-8.54;100.00;101779.03;5048173;28;20201;-74
2022/12/18 03:37:32;;;;;;;34.65;16.00;;;;;;;-8.63;100.00;101772.50;5048882;28;20201;-73
2022/12/18 03:39:59;;;;;;;34.60;16.02;;;;;;;-8.64;100.00;101788.06;5051768;28;20718;-73
2022/12/18 03:42:33;;;;;;;40.00;18.92;;;;;;;-8.63;100.00;101785.56;5053806;28;20300;-74
2022/12/18 03:45:09;;;;;;;38.03;16.75;;;;;;;-8.69;100.00;101790.44;5050824;28;20190;-73
2022/12/18 03:47:42;;;;;;;35.25;15.70;;;;;;;-8.68;100.00;101779.19;5045020;28;20201;-74
2022/12/18 03:50:15;;;;;;;37.05;17.73;;;;;;;-8.70;100.00;101767.75;5056834;28;20300;-74
2022/12/18 03:52:47;;;;;;;46.08;17.25;;;;;;;-8.66;100.00;101768.81;5057089;28;20203;-74
2022/12/18 03:55:14;;;;;;;34.65;15.13;;;;;;;-8.66;100.00;101771.41;5055845;28;20197;-74
2022/12/18 03:57:45;;;;;;;43.55;16.75;;;;;;;-8.69;100.00;101769.53;5054591;28;20197;-74
2022/12/18 04:00:16;;;;;;;33.28;17.23;;;;;;;-8.69;100.00;101768.66;5056559;28;20274;-74
2022/12/18 04:02:48;;;;;;;35.38;16.48;;;;;;;-8.75;100.00;101766.63;5056209;28;20200;-74
2022/12/18 04:05:16;;;;;;;31.60;16.23;;;;;;;-8.75;100.00;101774.44;5055506;28;20208;-74
2022/12/18 04:07:44;;;;;;;35.80;17.25;;;;;;;-8.79;100.00;101780.31;5058279;28;20201;-73
2022/12/18 04:10:14;;;;;;;37.20;17.92;;;;;;;-8.72;100.00;101792.00;5052084;28;20681;-73
2022/12/18 04:12:43;;;;;;;32.17;17.08;;;;;;;-8.66;100.00;101787.09;5058789;28;20584;-75
2022/12/18 04:15:11;;;;;;;34.72;16.25;;;;;;;-8.71;100.00;101789.44;5059450;28;20194;-74
2022/12/18 04:17:38;;;;;;;35.88;16.25;;;;;;;-8.72;100.00;101777.22;5043934;28;20203;-74
2022/12/18 04:20:06;;;;;;;35.80;15.63;;;;;;;-8.74;100.00;101772.72;5056313;28;20221;-73
2022/12/18 04:22:32;;;;;;;31.45;15.43;;;;;;;-8.74;100.00;101778.84;5055042;28;20276;-74
2022/12/18 04:24:59;;;;;;;37.35;15.45;;;;;;;-8.78;100.00;101773.38;5057411;28;20197;-73
2022/12/18 04:27:25;;;;;;;28.58;15.43;;;;;;;-8.81;100.00;101776.72;5058967;28;20651;-74
2022/12/18 04:29:53;;;;;;;37.80;16.48;;;;;;;-8.75;100.00;101774.44;5061264;28;20209;-74
2022/12/18 04:32:20;;;;;;;36.97;17.63;;;;;;;-8.76;100.00;101770.03;5056717;28;20211;-73
2022/12/18 04:34:46;;;;;;;34.70;16.23;;;;;;;-8.73;100.00;101775.41;5054504;28;20229;-74
2022/12/18 04:37:13;;;;;;;39.35;15.73;;;;;;;-8.70;100.00;101772.97;5052556;28;20701;-74
2022/12/18 04:39:39;;;;;;;38.58;17.88;;;;;;;-8.71;100.00;101770.28;5046112;28;20224;-73
2022/12/18 04:42:06;;;;;;;33.75;17.02;;;;;;;-8.74;100.00;101768.41;5055241;28;20205;-74
2022/12/18 04:44:33;;;;;;;33.30;16.50;;;;;;;-8.75;100.00;101766.63;5053578;28;20201;-76
2022/12/18 04:47:00;;;;;;;35.95;15.65;;;;;;;-8.78;100.00;101758.59;5052882;28;20229;-74
2022/12/18 04:49:27;;;;;;;44.45;17.48;;;;;;;-8.76;100.00;101763.91;5055044;28;20217;-73
2022/12/18 04:51:54;;;;;;;36.20;16.10;;;;;;;-8.79;100.00;101756.81;5066261;22;20293;-72
2022/12/18 04:54:21;;;;;;;35.80;17.48;;;;;;;-8.74;100.00;101764.91;5048750;28;20197;-72
2022/12/18 04:56:47;;;;;;;39.22;16.83;;;;;;;-8.73;100.00;101764.94;5053746;28;20270;-72
2022/12/18 04:59:14;;;;;;;29.50;15.40;;;;;;;-8.70;100.00;101772.09;5042806;28;20221;-73
2022/12/18 05:01:40;;;;;;;30.98;16.90;;;;;;;-8.68;100.00;101771.34;5044687;28;20226;-74
2022/12/18 05:04:08;;;;;;;37.25;17.35;;;;;;;-8.68;100.00;101763.53;5042936;28;20198;-73
2022/12/18 05:06:35;;;;;;;34.05;17.10;;;;;;;-8.67;100.00;101767.91;5039448;28;20205;-74
2022/12/18 05:09:02;;;;;;;35.38;17.17;;;;;;;-8.64;100.00;101773.31;5038330;28;20301;-73
2022/12/18 05:11:28;;;;;;;35.53;16.55;;;;;;;-8.58;100.00;101775.34;5036402;28;20244;-73
2022/12/18 05:13:58;;;;;;;34.97;17.27;;;;;;;-8.54;100.00;101773.81;5047277;28;20198;-75
2022/12/18 05:16:25;;;;;;;32.70;15.77;;;;;;;-8.56;100.00;101780.66;5038579;28;20202;-73
2022/12/18 05:18:51;;;;;;;30.77;15.70;;;;;;;-8.58;100.00;101783.19;5031730;28;20212;-75
2022/12/18 05:21:19;;;;;;;37.83;17.35;;;;;;;-8.57;100.00;101784.97;5026867;28;20252;-74
2022/12/18 05:23:46;;;;;;;32.55;16.50;;;;;;;-8.61;100.00;101791.75;5032466;28;20284;-74
2022/12/18 05:26:17;;;;;;;29.85;17.27;;;;;;;-8.67;100.00;101791.41;5030905;28;20202;-73
2022/12/18 05:28:44;;;;;;;32.08;17.23;;;;;;;-8.68;100.00;101792.25;5040708;28;20195;-73
2022/12/18 05:31:18;;;;;;;33.50;16.80;;;;;;;-8.62;100.00;101786.44;5047964;28;20241;-72
2022/12/18 05:33:44;;;;;;;35.60;16.25;;;;;;;-8.66;100.00;101784.47;5045290;28;20271;-73
2022/12/18 05:36:12;;;;;;;39.33;17.08;;;;;;;-8.68;100.00;101781.81;5049201;28;20261;-72
2022/12/18 05:38:40;;;;;;;36.03;17.10;;;;;;;-8.72;100.00;101786.78;5043616;28;20197;-73
2022/12/18 05:41:08;;;;;;;32.58;16.98;;;;;;;-8.72;100.00;101779.81;5052106;28;20248;-74
2022/12/18 05:43:36;;;;;;;33.38;15.15;;;;;;;-8.69;100.00;101774.75;5043314;28;20217;-75
2022/12/18 05:46:04;;;;;;;41.28;18.40;;;;;;;-8.68;100.00;101771.34;5051033;28;20201;-74
2022/12/18 05:48:31;;;;;;;38.63;16.08;;;;;;;-8.65;100.00;101776.72;5036405;28;20223;-71
2022/12/18 05:51:04;;;;;;;36.70;16.55;;;;;;;-8.69;100.00;101761.69;5030440;28;20230;-70
2022/12/18 05:53:31;;;;;;;40.35;17.70;;;;;;;-8.70;100.00;101765.16;5033887;28;20198;-75
2022/12/18 05:56:06;;;;;;;35.72;16.70;;;;;;;-8.66;100.00;101768.81;5053431;28;20208;-73
2022/12/18 05:58:33;;;;;;;31.15;15.18;;;;;;;-8.66;100.00;101774.94;5052487;28;20204;-73
2022/12/18 06:01:08;;;;;;;29.90;17.52;;;;;;;-8.74;100.00;101775.34;5047807;28;20685;-74
2022/12/18 06:03:35;;;;;;;31.98;16.40;;;;;;;-8.74;100.00;101778.84;5037366;28;20198;-73
2022/12/18 06:06:01;;;;;;;34.28;15.68;;;;;;;-8.71;100.00;101775.50;5040721;28;20273;-72
2022/12/18 06:08:28;;;;;;;32.88;15.85;;;;;;;-8.77;100.00;101780.38;5055330;28;20296;-73
2022/12/18 06:10:55;;;;;;;36.75;16.27;;;;;;;-8.78;100.00;101784.72;5066849;28;20629;-73
2022/12/18 06:13:23;;;;;;;35.83;16.38;;;;;;;-8.78;100.00;101786.44;5065972;28;20295;-74
2022/12/18 06:15:50;;;;;;;32.05;16.45;;;;;;;-8.74;100.00;101786.69;5066908;28;20196;-73
2022/12/18 06:18:17;;;;;;;33.22;16.42;;;;;;;-8.76;100.00;101785.69;5065543;28;20228;-72
2022/12/18 06:20:43;;;;;;;39.45;17.50;;;;;;;-8.78;100.00;101789.94;5067706;28;20252;-72
2022/12/18 06:23:10;;;;;;;30.30;16.42;;;;;;;-8.76;100.00;101787.41;5069010;28;20201;-72
2022/12/18 06:25:39;;;;;;;40.00;18.98;;;;;;;-8.75;100.00;101794.41;5067811;28;20205;-72
2022/12/18 06:28:06;;;;;;;32.47;14.93;;;;;;;-8.70;100.00;101804.31;5058505;28;20254;-72
2022/12/18 06:30:34;;;;;;;39.70;17.23;;;;;;;-8.65;100.00;101804.56;5060387;28;20657;-71
2022/12/18 06:33:00;;;;;;;37.67;17.05;;;;;;;-8.68;100.00;101797.47;5060018;28;20295;-73
2022/12/18 06:35:27;;;;;;;41.53;18.92;;;;;;;-8.70;100.00;101806.03;5057824;28;20538;-72
2022/12/18 06:37:53;;;;;;;33.88;17.20;;;;;;;-8.65;100.00;101805.47;5056730;28;20733;-73
2022/12/18 06:40:20;;;;;;;36.42;15.40;;;;;;;-8.64;100.00;101824.63;5056617;28;20225;-72
2022/12/18 06:42:46;;;;;;;39.00;17.50;;;;;;;-8.63;100.00;101822.13;5055896;28;20205;-73
2022/12/18 06:45:16;;;;;;;37.45;17.70;;;;;;;-8.64;100.00;101815.13;5047823;28;20230;-72
2022/12/18 06:47:44;;;;;;;29.60;16.40;;;;;;;-8.71;100.00;101819.91;5040470;28;20633;-73
2022/12/18 06:50:11;;;;;;;33.72;15.55;;;;;;;-8.62;100.00;101818.69;5043396;28;20218;-72
2022/12/18 06:52:38;;;;;;;34.20;17.00;;;;;;;-8.55;100.00;101817.31;5043393;28;20270;-72
2022/12/18 06:55:06;;;;;;;39.17;15.75;;;;;;;-8.54;100.00;101820.84;5044350;28;20205;-73
2022/12/18 06:57:33;;;;;;;33.15;17.17;;;;;;;-8.56;100.00;101819.84;5041465;28;20261;-76
2022/12/18 07:00:00;;;;;;;34.22;15.73;;;;;;;-8.57;100.00;101818.03;5041182;28;20222;-72
2022/12/18 07:02:26;;;;;;;38.05;18.05;;;;;;;-8.56;100.00;101823.34;5027646;28;20266;-73
2022/12/18 07:04:54;;;;;;;36.42;17.75;;;;;;;-8.58;100.00;101821.47;5019071;28;20213;-72
2022/12/18 07:07:21;;;;;;;35.92;17.48;;;;;;;-8.63;100.00;101816.00;5018397;28;20202;-73
2022/12/18 07:09:49;;;;;;;34.05;16.65;;;;;;;-8.64;100.00;101833.41;5018377;28;20206;-72
2022/12/18 07:12:15;;;;;;;34.70;17.25;;;;;;;-8.58;100.00;101826.72;5019995;28;20664;-71
2022/12/18 07:14:42;;;;;;;32.08;16.60;;;;;;;-8.58;100.00;101826.72;5022738;28;20275;-73
2022/12/18 07:17:08;;;;;;;35.13;17.05;;;;;;;-8.55;100.00;101835.59;5023583;28;20234;-71
2022/12/18 07:19:35;;;;;;;31.30;16.42;;;;;;;-8.33;100.00;101836.75;5022122;28;20224;-71
2022/12/18 07:22:03;;;;;;;33.55;16.45;;;;;;;-8.26;100.00;101833.63;5021797;28;20312;-73
2022/12/18 07:24:30;;;;;;;34.25;16.08;;;;;;;-8.16;100.00;101835.94;5021503;28;20198;-73
2022/12/18 07:26:56;;;;;;;37.20;16.98;;;;;;;-8.03;100.00;101827.00;5021037;28;20217;-73
2022/12/18 07:29:23;;;;;;;35.08;18.25;;;;;;;-7.99;100.00;101823.75;5028098;28;20285;-73
2022/12/18 07:31:50;;;;;;;37.97;17.05;;;;;;;-7.97;100.00;101823.00;5031445;28;20246;-73
2022/12/18 07:34:16;;;;;;;32.38;18.20;;;;;;;-7.96;100.00;101821.28;5032236;28;20663;-72
2022/12/18 07:36:43;;;;;;;33.60;18.33;;;;;;;-7.91;100.00;101819.81;5034164;28;20223;-73
2022/12/18 07:39:12;;;;;;;34.90;17.88;;;;;;;-7.88;100.00;101821.69;5031653;28;20217;-73
2022/12/18 07:41:42;;;;;;;41.45;18.75;;;;;;;-7.83;100.00;101826.34;5031417;28;20250;-74
2022/12/18 07:44:10;;;;;;;32.75;17.90;;;;;;;-7.68;100.00;101827.97;5024463;28;20199;-73
2022/12/18 07:46:36;;;;;;;35.33;19.05;;;;;;;-7.59;100.00;101831.06;5041017;28;20652;-75
2022/12/18 07:49:03;;;;;;;34.78;17.20;;;;;;;-7.46;100.00;101832.53;5041745;28;20213;-74
2022/12/18 07:51:29;;;;;;;38.92;17.17;;;;;;;-7.23;100.00;101836.34;5041759;28;20226;-74
2022/12/18 07:53:57;;;;;;;40.17;19.13;;;;;;;-6.99;100.00;101832.28;5040232;28;20208;-74
2022/12/18 07:56:25;;;;;;;35.17;18.70;;;;;;;-6.82;100.00;101822.63;5040137;28;20237;-73
2022/12/18 07:58:51;;;;;;;35.30;18.23;;;;;;;-6.58;100.00;101832.47;5039525;28;20255;-74
2022/12/18 08:01:18;;;;;;;37.42;18.67;;;;;;;-6.19;100.00;101825.56;5040300;28;20228;-76
2022/12/18 08:03:44;;;;;;;36.63;18.10;;;;;;;-5.60;100.00;101818.50;5038518;28;20719;-74
2022/12/18 08:06:11;;;;;;;38.42;20.13;;;;;;;-5.15;100.00;101833.53;5039760;28;20212;-74
2022/12/18 08:08:38;;;;;;;39.00;20.08;;;;;;;-4.50;100.00;101832.63;5041417;28;20202;-72
2022/12/18 08:11:05;;;;;;;38.42;19.23;;;;;;;-4.14;100.00;101833.97;5044210;28;20224;-74
2022/12/18 08:13:32;;;;;;;34.33;16.92;;;;;;;-4.10;100.00;101839.41;5046667;28;20691;-74
2022/12/18 08:16:03;;;;;;;44.75;22.60;;;;;;;-3.71;100.00;101832.91;5047295;28;20206;-73
2022/12/18 08:18:37;;;;;;;33.10;18.42;;;;;;;-3.45;100.00;101837.34;5050806;28;20212;-74
2022/12/18 08:21:10;;;;;;;30.10;16.63;;;;;;;-2.88;100.00;101836.63;5049414;28;20230;-73
2022/12/18 08:23:36;;;;;;;30.08;15.30;;;;;;;-2.39;100.00;101843.44;5051308;28;20205;-74
2022/12/18 08:26:03;;;;;;;29.70;16.75;;;;;;;-1.96;100.00;101844.72;5052603;28;20266;-72
2022/12/18 08:28:30;;;;;;;30.17;17.08;;;;;;;-1.79;100.00;101846.94;5050405;28;20198;-72
2022/12/18 08:30:58;;;;;;;31.73;17.40;;;;;;;-1.28;100.00;101846.56;5051877;28;20311;-75
2022/12/18 08:33:24;;;;;;;26.98;16.52;;;;;;;-0.89;100.00;101840.50;5051962;28;20273;-74
2022/12/18 08:35:51;;;;;;;29.20;17.27;;;;;;;-0.43;100.00;101833.63;5048819;28;20210;-73
2022/12/18 08:38:17;;;;;;;29.88;18.27;;;;;;;-0.16;100.00;101829.81;5050786;28;20229;-73
2022/12/18 08:40:44;;;;;;;26.65;17.13;;;;;;;0.36;100.00;101833.53;5051707;28;20232;-73
2022/12/18 08:45:57;;;;;;;29.27;17.60;;;;;;;1.08;100.00;101825.97;5049358;28;20262;-75
2022/12/18 08:48:24;;;;;;;30.15;19.92;;;;;;;1.08;100.00;101821.53;5049253;28;20274;-73
2022/12/18 08:50:55;;;;;;;32.95;20.88;;;;;;;0.72;100.00;101795.28;5050291;28;20228;-74
2022/12/18 08:53:24;;;;;;;28.65;18.83;;;;;;;0.94;100.00;101799.22;5053178;28;20216;-72
2022/12/18 08:55:51;;;;;;;28.90;19.15;;;;;;;1.41;100.00;101789.31;5053686;28;20239;-72
2022/12/18 08:58:17;;;;;;;34.13;22.00;;;;;;;1.58;100.00;101781.59;5052709;28;20211;-73
2022/12/18 09:00:44;;;;;;;32.38;20.73;;;;;;;1.43;100.00;101789.34;5053531;28;20234;-72
2022/12/18 09:03:14;;;;;;;30.98;21.42;;;;;;;1.55;100.00;101789.50;5054017;28;20211;-73
2022/12/18 09:05:40;;;;;;;30.48;21.92;;;;;;;1.80;100.00;101790.72;5035485;28;20239;-71
2022/12/18 09:08:07;;;;;;;30.95;21.52;;;;;;;2.16;100.00;101793.81;5051931;28;20235;-73
2022/12/18 09:10:34;;;;;;;33.85;21.85;;;;;;;2.11;93.25;101801.75;5051686;28;20723;-73
2022/12/18 09:13:00;;;;;;;34.60;22.67;;;;;;;3.16;78.18;101802.75;5052371;28;20226;-74
2022/12/18 09:15:27;;;;;;;36.17;24.17;;;;;;;3.21;73.16;101814.31;5052346;28;20734;-74
2022/12/18 09:17:54;;;;;;;30.20;20.75;;;;;;;3.51;67.57;101806.56;5053544;28;20216;-75
2022/12/18 09:20:22;;;;;;;38.67;23.88;;;;;;;4.00;64.12;101821.88;5053795;28;20237;-74
2022/12/18 09:22:48;;;;;;;38.63;26.05;;;;;;;4.81;59.69;101823.91;5054072;28;20206;-74
2022/12/18 09:25:15;;;;;;;36.38;24.70;;;;;;;4.34;56.83;101822.00;5052749;28;20226;-74
2022/12/18 09:27:42;;;;;;;33.40;23.33;;;;;;;3.98;58.26;101810.34;5052379;28;20639;-74
2022/12/18 09:30:09;;;;;;;32.78;24.83;;;;;;;4.13;57.12;101814.84;5053742;28;20252;-74
2022/12/18 09:32:36;;;;;;;35.85;25.25;;;;;;;3.77;57.14;101821.78;5052508;28;20205;-72
2022/12/18 09:35:02;;;;;;;38.92;25.73;;;;;;;3.17;60.88;101813.41;5035950;28;20217;-73
2022/12/18 09:37:30;;;;;;;36.75;24.65;;;;;;;4.04;57.20;101817.47;5052204;28;20244;-74
2022/12/18 09:39:57;;;;;;;35.88;25.40;;;;;;;4.27;56.06;101821.09;5052783;28;20205;-73
2022/12/18 09:42:24;;;;;;;36.53;26.38;;;;;;;4.33;52.99;101820.25;5052470;28;20225;-73
2022/12/18 09:44:53;;;;;;;35.05;25.30;;;;;;;4.61;52.50;101831.88;5052006;28;20265;-73
2022/12/18 09:47:24;;;;;;;34.00;24.88;;;;;;;5.02;52.33;101823.03;5052560;28;20221;-72
2022/12/18 09:49:54;;;;;;;36.65;26.35;;;;;;;3.65;55.34;101827.94;5052440;28;20202;-73
2022/12/18 09:52:27;;;;;;;32.83;24.75;;;;;;;3.41;57.06;101835.78;5052544;28;20248;-73
2022/12/18 09:55:01;;;;;;;34.13;25.35;;;;;;;3.77;58.31;101829.78;5047249;28;20196;-73
2022/12/18 09:57:30;;;;;;;36.45;26.27;;;;;;;4.79;54.22;101826.59;5045890;28;20285;-75
2022/12/18 10:00:03;;;;;;;38.70;25.60;;;;;;;3.07;57.05;101825.75;5044889;28;20241;-74
2022/12/18 10:02:32;;;;;;;39.10;25.85;;;;;;;3.00;61.18;101817.72;5045460;28;20245;-74
2022/12/18 10:05:05;;;;;;;35.17;26.25;;;;;;;3.52;59.65;101834.06;5042027;28;20735;-74
2022/12/18 10:07:43;;;;;;;39.90;26.77;;;;;;;1.88;66.83;101836.91;5043415;28;20202;-73
2022/12/18 10:10:22;;;;;;;40.65;26.60;;;;;;;1.54;72.60;101839.94;5050125;28;20193;-72
2022/12/18 10:12:56;;;;;;;39.30;27.55;;;;;;;1.60;74.35;101843.56;5050883;28;20208;-73
2022/12/18 10:15:30;;;;;;;44.22;27.40;;;;;;;2.38;70.33;101833.06;5051622;28;20177;-73
2022/12/18 10:18:04;;;;;;;39.60;25.65;;;;;;;3.20;64.65;101833.84;5048327;28;20187;-75
2022/12/18 10:20:35;;;;;;;39.30;25.77;;;;;;;3.22;61.16;101826.75;5050374;28;20343;-76
2022/12/18 10:23:09;;;;;;;39.38;26.15;;;;;;;2.54;65.60;101825.28;5050259;28;20247;-74
2022/12/18 10:25:48;;;;;;;37.83;25.10;;;;;;;3.11;66.82;101824.91;5050447;28;20200;-73
2022/12/18 10:28:17;;;;;;;40.45;26.25;;;;;;;2.81;63.31;101814.00;5046709;28;20208;-74
2022/12/18 10:30:44;;;;;;;40.50;25.52;;;;;;;2.40;62.59;101803.84;5045682;28;20280;-75
2022/12/18 10:33:16;;;;;;;41.97;25.67;;;;;;;1.35;70.79;101810.47;5045332;28;20206;-74
2022/12/18 10:35:44;;;;;;;44.78;27.90;;;;;;;1.06;77.29;101812.66;5047129;28;20691;-74
2022/12/18 10:38:23;;;;;;;41.40;25.00;;;;;;;1.09;76.33;101819.81;5048124;28;20188;-75
2022/12/18 10:40:54;;;;;;;40.72;26.42;;;;;;;-0.25;86.67;101820.81;5046294;28;20223;-74
2022/12/18 10:43:24;;;;;;;40.17;24.95;;;;;;;-0.53;91.89;101827.25;5045157;28;20270;-73
2022/12/18 10:46:12;;;;;;;36.00;24.90;;;;;;;-0.68;94.63;101832.19;5045716;28;20291;-73
2022/12/18 10:48:50;;;;;;;44.90;24.27;;;;;;;-2.00;100.00;101832.28;5045591;28;20205;-74
2022/12/18 10:51:22;;;;;;;42.63;23.00;;;;;;;-2.37;100.00;101830.31;5068281;22;20251;-74
2022/12/18 10:53:55;;;;;;;42.53;24.45;;;;;;;-1.95;100.00;101825.38;5080213;28;20250;-75
2022/12/18 10:56:24;;;;;;;42.05;23.95;;;;;;;-1.79;100.00;101826.69;5078456;28;20343;-75
2022/12/18 10:58:59;;;;;;;46.85;27.10;;;;;;;-1.70;100.00;101813.78;5080082;28;20279;-75
2022/12/18 11:01:26;;;;;;;44.63;24.80;;;;;;;-1.48;100.00;101822.25;5078778;28;20231;-73
2022/12/18 11:04:01;;;;;;;42.97;22.45;;;;;;;-1.81;100.00;101817.84;5077274;28;20204;-75
2022/12/18 11:06:28;;;;;;;44.60;23.20;;;;;;;-1.20;100.00;101828.25;5079680;28;20688;-74
2022/12/18 11:09:00;;;;;;;48.22;25.20;;;;;;;-0.89;100.00;101830.81;5085231;28;20200;-74
2022/12/18 11:11:29;;;;;;;45.72;24.20;;;;;;;-0.72;100.00;101815.34;5096979;28;20220;-75
2022/12/18 11:14:02;;;;;;;46.10;23.98;;;;;;;-1.20;100.00;101818.56;5093559;28;20202;-75
2022/12/18 11:16:30;;;;;;;48.88;24.00;;;;;;;-0.39;98.77;101810.78;5089169;28;20270;-74
2022/12/18 11:19:14;;;;;;;39.88;23.15;;;;;;;-0.01;93.57;101799.25;5084814;28;20253;-74